sensor_id;sensor_type;location;lat;lon;timestamp;P1;durP1;ratioP1;P2;durP2;ratioP2
65996;SDS011;52765;52.258;21.052;2023-04-03T00:00:34;6.25;;;1.63;;
65996;SDS011;52765;52.258;21.052;2023-04-03T00:03:00;5.25;;;1.60;;
65996;SDS011;52765;52.258;21.052;2023-04-03T00:05:26;4.85;;;1.20;;
65996;SDS011;52765;52.258;21.052;2023-04-03T00:07:51;15.27;;;2.85;;
65996;SDS011;52765;52.258;21.052;2023-04-03T00:10:17;11.38;;;3.20;;
65996;SDS011;52765;52.258;21.052;2023-04-03T00:12:43;22.10;;;5.38;;
65996;SDS011;52765;52.258;21.052;2023-04-03T00:15:09;16.15;;;3.38;;
65996;SDS011;52765;52.258;21.052;2023-04-03T00:17:35;5.50;;;1.20;;
65996;SDS011;52765;52.258;21.052;2023-04-03T00:20:01;4.32;;;1.08;;
65996;SDS011;52765;52.258;21.052;2023-04-03T00:22:27;4.72;;;1.38;;
65996;SDS011;52765;52.258;21.052;2023-04-03T00:24:53;7.32;;;2.08;;
65996;SDS011;52765;52.258;21.052;2023-04-03T00:27:19;15.27;;;3.75;;
65996;SDS011;52765;52.258;21.052;2023-04-03T00:29:45;19.55;;;4.68;;
65996;SDS011;52765;52.258;21.052;2023-04-03T00:32:10;13.60;;;2.78;;
65996;SDS011;52765;52.258;21.052;2023-04-03T00:34:36;5.20;;;1.60;;
65996;SDS011;52765;52.258;21.052;2023-04-03T00:37:02;4.28;;;1.00;;
65996;SDS011;52765;52.258;21.052;2023-04-03T00:39:27;3.95;;;1.42;;
65996;SDS011;52765;52.258;21.052;2023-04-03T00:41:53;12.55;;;3.28;;
65996;SDS011;52765;52.258;21.052;2023-04-03T00:44:19;21.33;;;5.15;;
65996;SDS011;52765;52.258;21.052;2023-04-03T00:46:46;15.15;;;3.70;;
65996;SDS011;52765;52.258;21.052;2023-04-03T00:49:12;10.55;;;2.17;;
65996;SDS011;52765;52.258;21.052;2023-04-03T00:51:37;6.50;;;1.70;;
65996;SDS011;52765;52.258;21.052;2023-04-03T00:54:05;6.63;;;1.55;;
65996;SDS011;52765;52.258;21.052;2023-04-03T00:56:35;2.90;;;1.20;;
65996;SDS011;52765;52.258;21.052;2023-04-03T00:59:11;5.13;;;1.42;;
65996;SDS011;52765;52.258;21.052;2023-04-03T01:01:41;13.45;;;3.83;;
65996;SDS011;52765;52.258;21.052;2023-04-03T01:04:24;22.42;;;5.18;;
65996;SDS011;52765;52.258;21.052;2023-04-03T01:06:57;12.63;;;3.10;;
65996;SDS011;52765;52.258;21.052;2023-04-03T01:09:26;4.70;;;1.50;;
65996;SDS011;52765;52.258;21.052;2023-04-03T01:11:53;5.40;;;1.40;;
65996;SDS011;52765;52.258;21.052;2023-04-03T01:14:19;3.63;;;1.42;;
65996;SDS011;52765;52.258;21.052;2023-04-03T01:16:53;3.10;;;1.33;;
65996;SDS011;52765;52.258;21.052;2023-04-03T01:19:19;3.08;;;1.27;;
65996;SDS011;52765;52.258;21.052;2023-04-03T01:24:37;12.27;;;3.10;;
65996;SDS011;52765;52.258;21.052;2023-04-03T01:27:06;9.02;;;2.55;;
65996;SDS011;52765;52.258;21.052;2023-04-03T01:29:34;7.65;;;2.05;;
65996;SDS011;52765;52.258;21.052;2023-04-03T01:32:01;2.58;;;1.20;;
65996;SDS011;52765;52.258;21.052;2023-04-03T01:34:27;3.10;;;1.08;;
65996;SDS011;52765;52.258;21.052;2023-04-03T01:36:53;7.38;;;1.20;;
65996;SDS011;52765;52.258;21.052;2023-04-03T01:39:19;3.58;;;1.00;;
65996;SDS011;52765;52.258;21.052;2023-04-03T01:41:47;4.10;;;1.27;;
65996;SDS011;52765;52.258;21.052;2023-04-03T01:44:17;1.80;;;0.90;;
65996;SDS011;52765;52.258;21.052;2023-04-03T01:46:43;2.17;;;1.23;;
65996;SDS011;52765;52.258;21.052;2023-04-03T01:49:08;4.65;;;1.00;;
65996;SDS011;52765;52.258;21.052;2023-04-03T01:51:34;12.48;;;2.20;;
65996;SDS011;52765;52.258;21.052;2023-04-03T01:54:00;15.70;;;3.72;;
65996;SDS011;52765;52.258;21.052;2023-04-03T01:56:25;12.65;;;3.60;;
65996;SDS011;52765;52.258;21.052;2023-04-03T01:58:51;22.05;;;6.68;;
65996;SDS011;52765;52.258;21.052;2023-04-03T02:01:17;9.45;;;2.92;;
65996;SDS011;52765;52.258;21.052;2023-04-03T02:03:42;9.95;;;2.78;;
65996;SDS011;52765;52.258;21.052;2023-04-03T02:06:08;6.10;;;1.77;;
65996;SDS011;52765;52.258;21.052;2023-04-03T02:08:51;1.90;;;1.02;;
65996;SDS011;52765;52.258;21.052;2023-04-03T02:11:17;4.30;;;1.10;;
65996;SDS011;52765;52.258;21.052;2023-04-03T02:13:42;3.40;;;1.15;;
65996;SDS011;52765;52.258;21.052;2023-04-03T02:16:09;2.40;;;1.00;;
65996;SDS011;52765;52.258;21.052;2023-04-03T02:18:36;2.03;;;0.88;;
65996;SDS011;52765;52.258;21.052;2023-04-03T02:21:02;3.38;;;0.80;;
65996;SDS011;52765;52.258;21.052;2023-04-03T02:23:30;2.78;;;0.70;;
65996;SDS011;52765;52.258;21.052;2023-04-03T02:26:11;2.63;;;1.23;;
65996;SDS011;52765;52.258;21.052;2023-04-03T02:28:38;3.72;;;1.27;;
65996;SDS011;52765;52.258;21.052;2023-04-03T02:31:06;2.60;;;1.15;;
65996;SDS011;52765;52.258;21.052;2023-04-03T02:33:32;3.40;;;1.60;;
65996;SDS011;52765;52.258;21.052;2023-04-03T02:35:57;2.30;;;1.00;;
65996;SDS011;52765;52.258;21.052;2023-04-03T02:38:23;7.43;;;1.40;;
65996;SDS011;52765;52.258;21.052;2023-04-03T02:40:50;4.00;;;1.10;;
65996;SDS011;52765;52.258;21.052;2023-04-03T02:43:17;2.45;;;0.70;;
65996;SDS011;52765;52.258;21.052;2023-04-03T02:45:45;2.22;;;0.90;;
65996;SDS011;52765;52.258;21.052;2023-04-03T02:48:17;7.80;;;1.10;;
65996;SDS011;52765;52.258;21.052;2023-04-03T02:50:54;7.88;;;1.00;;
65996;SDS011;52765;52.258;21.052;2023-04-03T02:53:20;3.45;;;0.90;;
65996;SDS011;52765;52.258;21.052;2023-04-03T02:55:46;6.90;;;2.00;;
65996;SDS011;52765;52.258;21.052;2023-04-03T02:58:12;2.63;;;1.00;;
65996;SDS011;52765;52.258;21.052;2023-04-03T03:00:37;3.70;;;1.27;;
65996;SDS011;52765;52.258;21.052;2023-04-03T03:03:03;6.43;;;0.80;;
65996;SDS011;52765;52.258;21.052;2023-04-03T03:05:29;3.33;;;1.10;;
65996;SDS011;52765;52.258;21.052;2023-04-03T03:07:55;3.63;;;1.13;;
65996;SDS011;52765;52.258;21.052;2023-04-03T03:10:20;4.43;;;1.48;;
65996;SDS011;52765;52.258;21.052;2023-04-03T03:12:46;3.15;;;1.48;;
65996;SDS011;52765;52.258;21.052;2023-04-03T03:15:12;5.30;;;1.40;;
65996;SDS011;52765;52.258;21.052;2023-04-03T03:17:37;2.85;;;1.02;;
65996;SDS011;52765;52.258;21.052;2023-04-03T03:20:03;2.63;;;1.00;;
65996;SDS011;52765;52.258;21.052;2023-04-03T03:22:30;2.35;;;0.77;;
65996;SDS011;52765;52.258;21.052;2023-04-03T03:24:56;2.60;;;1.08;;
65996;SDS011;52765;52.258;21.052;2023-04-03T03:27:21;2.58;;;0.75;;
65996;SDS011;52765;52.258;21.052;2023-04-03T03:29:47;3.13;;;1.08;;
65996;SDS011;52765;52.258;21.052;2023-04-03T03:32:18;3.85;;;0.93;;
65996;SDS011;52765;52.258;21.052;2023-04-03T03:34:43;5.60;;;1.60;;
65996;SDS011;52765;52.258;21.052;2023-04-03T03:37:18;8.65;;;1.30;;
65996;SDS011;52765;52.258;21.052;2023-04-03T03:39:53;4.97;;;0.93;;
65996;SDS011;52765;52.258;21.052;2023-04-03T03:42:19;4.38;;;1.40;;
65996;SDS011;52765;52.258;21.052;2023-04-03T03:44:44;4.57;;;0.82;;
65996;SDS011;52765;52.258;21.052;2023-04-03T03:47:10;4.40;;;1.33;;
65996;SDS011;52765;52.258;21.052;2023-04-03T03:49:36;4.90;;;1.15;;
65996;SDS011;52765;52.258;21.052;2023-04-03T03:52:07;1.77;;;0.75;;
65996;SDS011;52765;52.258;21.052;2023-04-03T03:54:35;2.85;;;1.10;;
65996;SDS011;52765;52.258;21.052;2023-04-03T03:57:01;2.20;;;1.00;;
65996;SDS011;52765;52.258;21.052;2023-04-03T03:59:27;4.15;;;0.80;;
65996;SDS011;52765;52.258;21.052;2023-04-03T04:01:55;2.95;;;0.75;;
65996;SDS011;52765;52.258;21.052;2023-04-03T04:04:20;2.17;;;0.75;;
65996;SDS011;52765;52.258;21.052;2023-04-03T04:06:46;3.33;;;1.02;;
65996;SDS011;52765;52.258;21.052;2023-04-03T04:09:14;5.47;;;1.48;;
65996;SDS011;52765;52.258;21.052;2023-04-03T04:11:39;6.47;;;1.40;;
65996;SDS011;52765;52.258;21.052;2023-04-03T04:14:05;1.30;;;0.60;;
65996;SDS011;52765;52.258;21.052;2023-04-03T04:16:32;3.17;;;0.90;;
65996;SDS011;52765;52.258;21.052;2023-04-03T04:18:57;3.58;;;1.20;;
65996;SDS011;52765;52.258;21.052;2023-04-03T04:21:22;3.35;;;1.05;;
65996;SDS011;52765;52.258;21.052;2023-04-03T04:23:48;3.70;;;1.05;;
65996;SDS011;52765;52.258;21.052;2023-04-03T04:26:13;3.25;;;1.30;;
65996;SDS011;52765;52.258;21.052;2023-04-03T04:28:39;6.63;;;1.13;;
65996;SDS011;52765;52.258;21.052;2023-04-03T04:31:07;4.40;;;1.20;;
65996;SDS011;52765;52.258;21.052;2023-04-03T04:33:32;2.10;;;1.05;;
65996;SDS011;52765;52.258;21.052;2023-04-03T04:35:58;3.13;;;0.90;;
65996;SDS011;52765;52.258;21.052;2023-04-03T04:38:23;5.00;;;1.45;;
65996;SDS011;52765;52.258;21.052;2023-04-03T04:40:50;5.25;;;1.40;;
65996;SDS011;52765;52.258;21.052;2023-04-03T04:43:15;12.93;;;4.85;;
65996;SDS011;52765;52.258;21.052;2023-04-03T04:45:41;4.72;;;1.42;;
65996;SDS011;52765;52.258;21.052;2023-04-03T04:48:07;2.90;;;0.98;;
65996;SDS011;52765;52.258;21.052;2023-04-03T04:50:32;4.95;;;1.02;;
65996;SDS011;52765;52.258;21.052;2023-04-03T04:52:59;4.85;;;1.40;;
65996;SDS011;52765;52.258;21.052;2023-04-03T04:55:25;7.75;;;1.70;;
65996;SDS011;52765;52.258;21.052;2023-04-03T04:57:50;7.63;;;2.53;;
65996;SDS011;52765;52.258;21.052;2023-04-03T05:00:17;3.42;;;0.80;;
65996;SDS011;52765;52.258;21.052;2023-04-03T05:02:43;7.25;;;1.08;;
65996;SDS011;52765;52.258;21.052;2023-04-03T05:05:09;5.05;;;1.10;;
65996;SDS011;52765;52.258;21.052;2023-04-03T05:07:34;7.68;;;1.20;;
65996;SDS011;52765;52.258;21.052;2023-04-03T05:10:00;3.08;;;1.15;;
65996;SDS011;52765;52.258;21.052;2023-04-03T05:12:27;1.65;;;0.95;;
65996;SDS011;52765;52.258;21.052;2023-04-03T05:14:53;1.60;;;0.98;;
65996;SDS011;52765;52.258;21.052;2023-04-03T05:17:18;2.50;;;1.20;;
65996;SDS011;52765;52.258;21.052;2023-04-03T05:19:44;6.95;;;1.05;;
65996;SDS011;52765;52.258;21.052;2023-04-03T05:22:09;3.25;;;1.20;;
65996;SDS011;52765;52.258;21.052;2023-04-03T05:24:35;3.00;;;1.25;;
65996;SDS011;52765;52.258;21.052;2023-04-03T05:27:01;3.63;;;1.73;;
65996;SDS011;52765;52.258;21.052;2023-04-03T05:29:26;3.55;;;1.20;;
65996;SDS011;52765;52.258;21.052;2023-04-03T05:31:52;2.03;;;1.00;;
65996;SDS011;52765;52.258;21.052;2023-04-03T05:34:17;5.60;;;1.15;;
65996;SDS011;52765;52.258;21.052;2023-04-03T05:36:43;7.72;;;1.40;;
65996;SDS011;52765;52.258;21.052;2023-04-03T05:39:08;4.18;;;1.00;;
65996;SDS011;52765;52.258;21.052;2023-04-03T05:41:34;2.90;;;1.13;;
65996;SDS011;52765;52.258;21.052;2023-04-03T05:43:59;2.15;;;1.10;;
65996;SDS011;52765;52.258;21.052;2023-04-03T05:46:25;2.72;;;0.93;;
65996;SDS011;52765;52.258;21.052;2023-04-03T05:48:51;6.22;;;1.30;;
65996;SDS011;52765;52.258;21.052;2023-04-03T05:51:18;4.30;;;1.13;;
65996;SDS011;52765;52.258;21.052;2023-04-03T05:56:50;5.38;;;1.60;;
65996;SDS011;52765;52.258;21.052;2023-04-03T05:59:16;3.75;;;1.30;;
65996;SDS011;52765;52.258;21.052;2023-04-03T06:01:43;3.90;;;0.93;;
65996;SDS011;52765;52.258;21.052;2023-04-03T06:04:08;3.70;;;1.10;;
65996;SDS011;52765;52.258;21.052;2023-04-03T06:09:16;1.60;;;0.70;;
65996;SDS011;52765;52.258;21.052;2023-04-03T06:11:43;2.83;;;1.25;;
65996;SDS011;52765;52.258;21.052;2023-04-03T06:14:12;2.80;;;0.90;;
65996;SDS011;52765;52.258;21.052;2023-04-03T06:16:38;4.38;;;1.23;;
65996;SDS011;52765;52.258;21.052;2023-04-03T06:19:04;1.98;;;1.13;;
65996;SDS011;52765;52.258;21.052;2023-04-03T06:21:31;9.43;;;1.35;;
65996;SDS011;52765;52.258;21.052;2023-04-03T06:23:56;4.43;;;0.90;;
65996;SDS011;52765;52.258;21.052;2023-04-03T06:26:25;4.68;;;1.45;;
65996;SDS011;52765;52.258;21.052;2023-04-03T06:28:51;5.50;;;1.40;;
65996;SDS011;52765;52.258;21.052;2023-04-03T06:31:16;4.35;;;1.30;;
65996;SDS011;52765;52.258;21.052;2023-04-03T06:33:42;5.10;;;1.50;;
65996;SDS011;52765;52.258;21.052;2023-04-03T06:36:09;4.53;;;1.10;;
65996;SDS011;52765;52.258;21.052;2023-04-03T06:38:35;6.03;;;1.13;;
65996;SDS011;52765;52.258;21.052;2023-04-03T06:41:00;1.92;;;1.10;;
65996;SDS011;52765;52.258;21.052;2023-04-03T06:43:26;3.80;;;1.02;;
65996;SDS011;52765;52.258;21.052;2023-04-03T06:45:51;1.90;;;1.00;;
65996;SDS011;52765;52.258;21.052;2023-04-03T06:48:17;1.80;;;0.80;;
65996;SDS011;52765;52.258;21.052;2023-04-03T06:50:43;7.20;;;1.30;;
65996;SDS011;52765;52.258;21.052;2023-04-03T06:53:09;6.13;;;1.17;;
65996;SDS011;52765;52.258;21.052;2023-04-03T06:55:35;8.95;;;1.48;;
65996;SDS011;52765;52.258;21.052;2023-04-03T06:58:04;3.78;;;1.10;;
65996;SDS011;52765;52.258;21.052;2023-04-03T07:00:30;6.25;;;1.20;;
65996;SDS011;52765;52.258;21.052;2023-04-03T07:02:55;6.75;;;1.35;;
65996;SDS011;52765;52.258;21.052;2023-04-03T07:05:22;2.22;;;1.13;;
65996;SDS011;52765;52.258;21.052;2023-04-03T07:07:48;3.17;;;1.00;;
65996;SDS011;52765;52.258;21.052;2023-04-03T07:10:15;3.88;;;1.10;;
65996;SDS011;52765;52.258;21.052;2023-04-03T07:12:41;6.15;;;1.67;;
65996;SDS011;52765;52.258;21.052;2023-04-03T07:15:06;5.82;;;1.60;;
65996;SDS011;52765;52.258;21.052;2023-04-03T07:17:33;1.95;;;1.13;;
65996;SDS011;52765;52.258;21.052;2023-04-03T07:19:59;5.45;;;2.13;;
65996;SDS011;52765;52.258;21.052;2023-04-03T07:22:24;3.97;;;1.20;;
65996;SDS011;52765;52.258;21.052;2023-04-03T07:24:50;1.95;;;0.95;;
65996;SDS011;52765;52.258;21.052;2023-04-03T07:27:15;4.47;;;1.10;;
65996;SDS011;52765;52.258;21.052;2023-04-03T07:29:43;3.58;;;1.05;;
65996;SDS011;52765;52.258;21.052;2023-04-03T07:32:09;3.63;;;1.40;;
65996;SDS011;52765;52.258;21.052;2023-04-03T07:34:35;7.63;;;1.60;;
65996;SDS011;52765;52.258;21.052;2023-04-03T07:37:02;3.33;;;1.10;;
65996;SDS011;52765;52.258;21.052;2023-04-03T07:39:28;5.15;;;1.30;;
65996;SDS011;52765;52.258;21.052;2023-04-03T07:41:54;4.07;;;0.98;;
65996;SDS011;52765;52.258;21.052;2023-04-03T07:44:21;4.43;;;1.30;;
65996;SDS011;52765;52.258;21.052;2023-04-03T07:46:47;3.30;;;1.15;;
65996;SDS011;52765;52.258;21.052;2023-04-03T07:49:13;3.33;;;1.08;;
65996;SDS011;52765;52.258;21.052;2023-04-03T07:51:39;4.57;;;1.02;;
65996;SDS011;52765;52.258;21.052;2023-04-03T07:54:05;6.03;;;1.70;;
65996;SDS011;52765;52.258;21.052;2023-04-03T07:56:31;2.92;;;1.48;;
65996;SDS011;52765;52.258;21.052;2023-04-03T07:58:57;4.07;;;1.05;;
65996;SDS011;52765;52.258;21.052;2023-04-03T08:01:22;4.80;;;1.55;;
65996;SDS011;52765;52.258;21.052;2023-04-03T08:03:48;2.95;;;1.40;;
65996;SDS011;52765;52.258;21.052;2023-04-03T08:06:13;7.88;;;1.30;;
65996;SDS011;52765;52.258;21.052;2023-04-03T08:08:40;5.00;;;1.33;;
65996;SDS011;52765;52.258;21.052;2023-04-03T08:11:06;5.30;;;1.60;;
65996;SDS011;52765;52.258;21.052;2023-04-03T08:13:33;2.63;;;0.90;;
65996;SDS011;52765;52.258;21.052;2023-04-03T08:16:06;5.88;;;1.00;;
65996;SDS011;52765;52.258;21.052;2023-04-03T08:18:33;3.88;;;1.15;;
65996;SDS011;52765;52.258;21.052;2023-04-03T08:20:58;4.38;;;1.23;;
65996;SDS011;52765;52.258;21.052;2023-04-03T08:23:24;1.77;;;0.88;;
65996;SDS011;52765;52.258;21.052;2023-04-03T08:25:50;3.85;;;0.82;;
65996;SDS011;52765;52.258;21.052;2023-04-03T08:28:16;5.30;;;1.48;;
65996;SDS011;52765;52.258;21.052;2023-04-03T08:30:42;1.70;;;1.13;;
65996;SDS011;52765;52.258;21.052;2023-04-03T08:33:09;5.00;;;1.70;;
65996;SDS011;52765;52.258;21.052;2023-04-03T08:35:42;7.22;;;1.63;;
65996;SDS011;52765;52.258;21.052;2023-04-03T08:38:10;3.17;;;1.27;;
65996;SDS011;52765;52.258;21.052;2023-04-03T08:40:38;2.30;;;1.02;;
65996;SDS011;52765;52.258;21.052;2023-04-03T08:45:55;4.35;;;2.08;;
65996;SDS011;52765;52.258;21.052;2023-04-03T08:48:31;6.75;;;2.72;;
65996;SDS011;52765;52.258;21.052;2023-04-03T08:51:10;2.17;;;0.93;;
65996;SDS011;52765;52.258;21.052;2023-04-03T08:53:45;3.42;;;1.20;;
65996;SDS011;52765;52.258;21.052;2023-04-03T08:56:22;6.07;;;1.67;;
65996;SDS011;52765;52.258;21.052;2023-04-03T08:58:56;4.13;;;1.35;;
65996;SDS011;52765;52.258;21.052;2023-04-03T09:04:10;4.80;;;0.82;;
65996;SDS011;52765;52.258;21.052;2023-04-03T09:06:46;1.95;;;0.88;;
65996;SDS011;52765;52.258;21.052;2023-04-03T09:20:13;3.22;;;1.05;;
65996;SDS011;52765;52.258;21.052;2023-04-03T09:22:52;4.05;;;1.25;;
65996;SDS011;52765;52.258;21.052;2023-04-03T09:25:32;2.13;;;1.20;;
65996;SDS011;52765;52.258;21.052;2023-04-03T09:28:02;5.57;;;1.17;;
65996;SDS011;52765;52.258;21.052;2023-04-03T09:30:29;3.33;;;0.93;;
65996;SDS011;52765;52.258;21.052;2023-04-03T09:32:55;2.42;;;1.00;;
65996;SDS011;52765;52.258;21.052;2023-04-03T09:35:24;4.70;;;1.25;;
65996;SDS011;52765;52.258;21.052;2023-04-03T09:38:13;4.93;;;1.05;;
65996;SDS011;52765;52.258;21.052;2023-04-03T09:40:42;2.38;;;0.75;;
65996;SDS011;52765;52.258;21.052;2023-04-03T09:45:42;3.63;;;0.95;;
65996;SDS011;52765;52.258;21.052;2023-04-03T09:48:15;6.65;;;0.90;;
65996;SDS011;52765;52.258;21.052;2023-04-03T09:55:50;3.60;;;1.17;;
65996;SDS011;52765;52.258;21.052;2023-04-03T09:58:23;1.45;;;0.63;;
65996;SDS011;52765;52.258;21.052;2023-04-03T10:03:33;2.38;;;1.00;;
65996;SDS011;52765;52.258;21.052;2023-04-03T10:06:00;3.45;;;1.02;;
65996;SDS011;52765;52.258;21.052;2023-04-03T10:08:29;3.05;;;1.10;;
65996;SDS011;52765;52.258;21.052;2023-04-03T10:11:05;3.88;;;0.95;;
65996;SDS011;52765;52.258;21.052;2023-04-03T10:13:31;4.20;;;0.82;;
65996;SDS011;52765;52.258;21.052;2023-04-03T10:16:06;2.40;;;1.20;;
65996;SDS011;52765;52.258;21.052;2023-04-03T10:18:41;7.18;;;1.40;;
65996;SDS011;52765;52.258;21.052;2023-04-03T10:21:28;3.00;;;0.88;;
65996;SDS011;52765;52.258;21.052;2023-04-03T10:27:25;2.92;;;0.82;;
65996;SDS011;52765;52.258;21.052;2023-04-03T10:30:27;4.63;;;1.13;;
65996;SDS011;52765;52.258;21.052;2023-04-03T10:41:12;1.92;;;0.77;;
65996;SDS011;52765;52.258;21.052;2023-04-03T10:47:05;3.08;;;0.90;;
65996;SDS011;52765;52.258;21.052;2023-04-03T10:57:46;1.40;;;0.70;;
65996;SDS011;52765;52.258;21.052;2023-04-03T11:00:16;1.90;;;0.90;;
65996;SDS011;52765;52.258;21.052;2023-04-03T11:02:52;1.95;;;1.00;;
65996;SDS011;52765;52.258;21.052;2023-04-03T11:05:26;0.90;;;0.68;;
65996;SDS011;52765;52.258;21.052;2023-04-03T11:08:01;2.67;;;0.80;;
65996;SDS011;52765;52.258;21.052;2023-04-03T11:10:50;8.68;;;1.25;;
65996;SDS011;52765;52.258;21.052;2023-04-03T11:13:22;2.97;;;0.80;;
65996;SDS011;52765;52.258;21.052;2023-04-03T11:15:55;5.93;;;1.08;;
65996;SDS011;52765;52.258;21.052;2023-04-03T11:18:25;4.03;;;1.10;;
65996;SDS011;52765;52.258;21.052;2023-04-03T11:21:04;4.30;;;1.10;;
65996;SDS011;52765;52.258;21.052;2023-04-03T11:23:39;1.58;;;0.82;;
65996;SDS011;52765;52.258;21.052;2023-04-03T11:26:10;2.00;;;1.00;;
65996;SDS011;52765;52.258;21.052;2023-04-03T11:28:38;2.15;;;1.05;;
65996;SDS011;52765;52.258;21.052;2023-04-03T11:33:47;2.22;;;1.02;;
65996;SDS011;52765;52.258;21.052;2023-04-03T11:36:33;2.70;;;1.00;;
65996;SDS011;52765;52.258;21.052;2023-04-03T11:39:29;2.92;;;1.20;;
65996;SDS011;52765;52.258;21.052;2023-04-03T11:41:55;3.30;;;0.90;;
65996;SDS011;52765;52.258;21.052;2023-04-03T11:44:40;1.70;;;0.88;;
65996;SDS011;52765;52.258;21.052;2023-04-03T11:47:07;4.55;;;1.15;;
65996;SDS011;52765;52.258;21.052;2023-04-03T12:03:29;0.88;;;0.60;;
65996;SDS011;52765;52.258;21.052;2023-04-03T12:16:28;4.38;;;1.02;;
65996;SDS011;52765;52.258;21.052;2023-04-03T12:29:56;2.80;;;1.13;;
65996;SDS011;52765;52.258;21.052;2023-04-03T12:32:41;2.35;;;0.90;;
65996;SDS011;52765;52.258;21.052;2023-04-03T12:46:16;2.10;;;0.95;;
65996;SDS011;52765;52.258;21.052;2023-04-03T12:51:12;1.58;;;0.95;;
65996;SDS011;52765;52.258;21.052;2023-04-03T12:53:40;4.28;;;1.23;;
65996;SDS011;52765;52.258;21.052;2023-04-03T12:56:27;4.32;;;0.98;;
65996;SDS011;52765;52.258;21.052;2023-04-03T12:58:55;3.45;;;1.00;;
65996;SDS011;52765;52.258;21.052;2023-04-03T13:01:37;1.17;;;0.98;;
65996;SDS011;52765;52.258;21.052;2023-04-03T13:04:03;3.15;;;1.17;;
65996;SDS011;52765;52.258;21.052;2023-04-03T13:06:31;8.70;;;1.33;;
65996;SDS011;52765;52.258;21.052;2023-04-03T13:09:19;1.88;;;0.80;;
65996;SDS011;52765;52.258;21.052;2023-04-03T13:11:47;1.33;;;0.93;;
65996;SDS011;52765;52.258;21.052;2023-04-03T13:14:22;1.55;;;0.70;;
65996;SDS011;52765;52.258;21.052;2023-04-03T13:16:57;2.42;;;0.98;;
65996;SDS011;52765;52.258;21.052;2023-04-03T13:19:26;1.33;;;0.93;;
65996;SDS011;52765;52.258;21.052;2023-04-03T13:21:57;2.00;;;0.90;;
65996;SDS011;52765;52.258;21.052;2023-04-03T13:24:26;2.72;;;0.73;;
65996;SDS011;52765;52.258;21.052;2023-04-03T13:26:54;3.90;;;1.20;;
65996;SDS011;52765;52.258;21.052;2023-04-03T13:29:30;1.48;;;0.85;;
65996;SDS011;52765;52.258;21.052;2023-04-03T13:31:59;3.58;;;1.10;;
65996;SDS011;52765;52.258;21.052;2023-04-03T13:34:27;2.90;;;1.23;;
65996;SDS011;52765;52.258;21.052;2023-04-03T13:37:00;1.77;;;1.02;;
65996;SDS011;52765;52.258;21.052;2023-04-03T13:39:29;3.47;;;1.30;;
65996;SDS011;52765;52.258;21.052;2023-04-03T13:42:22;3.65;;;1.00;;
65996;SDS011;52765;52.258;21.052;2023-04-03T13:47:52;5.75;;;1.10;;
65996;SDS011;52765;52.258;21.052;2023-04-03T13:50:23;1.60;;;0.90;;
65996;SDS011;52765;52.258;21.052;2023-04-03T13:53:03;4.63;;;0.80;;
65996;SDS011;52765;52.258;21.052;2023-04-03T13:55:52;1.02;;;0.63;;
65996;SDS011;52765;52.258;21.052;2023-04-03T13:58:23;2.17;;;1.08;;
65996;SDS011;52765;52.258;21.052;2023-04-03T14:00:55;4.20;;;0.90;;
65996;SDS011;52765;52.258;21.052;2023-04-03T14:05:56;5.80;;;1.15;;
65996;SDS011;52765;52.258;21.052;2023-04-03T14:08:22;2.92;;;0.90;;
65996;SDS011;52765;52.258;21.052;2023-04-03T14:10:48;2.58;;;0.80;;
65996;SDS011;52765;52.258;21.052;2023-04-03T14:13:15;2.13;;;0.80;;
65996;SDS011;52765;52.258;21.052;2023-04-03T14:15:42;3.42;;;1.00;;
65996;SDS011;52765;52.258;21.052;2023-04-03T14:18:15;3.20;;;1.00;;
65996;SDS011;52765;52.258;21.052;2023-04-03T14:20:43;2.92;;;1.08;;
65996;SDS011;52765;52.258;21.052;2023-04-03T14:23:19;1.98;;;0.85;;
65996;SDS011;52765;52.258;21.052;2023-04-03T14:25:45;3.08;;;1.10;;
65996;SDS011;52765;52.258;21.052;2023-04-03T14:28:20;1.48;;;0.90;;
65996;SDS011;52765;52.258;21.052;2023-04-03T14:31:13;2.15;;;1.13;;
65996;SDS011;52765;52.258;21.052;2023-04-03T14:33:42;3.08;;;1.08;;
65996;SDS011;52765;52.258;21.052;2023-04-03T14:36:23;2.55;;;0.80;;
65996;SDS011;52765;52.258;21.052;2023-04-03T14:41:25;1.50;;;0.75;;
65996;SDS011;52765;52.258;21.052;2023-04-03T14:43:52;2.45;;;1.02;;
65996;SDS011;52765;52.258;21.052;2023-04-03T14:48:49;1.63;;;0.70;;
65996;SDS011;52765;52.258;21.052;2023-04-03T14:51:15;1.55;;;0.82;;
65996;SDS011;52765;52.258;21.052;2023-04-03T14:53:41;1.63;;;0.70;;
65996;SDS011;52765;52.258;21.052;2023-04-03T14:56:11;2.00;;;0.82;;
65996;SDS011;52765;52.258;21.052;2023-04-03T14:58:42;3.13;;;1.17;;
65996;SDS011;52765;52.258;21.052;2023-04-03T15:01:11;3.33;;;0.90;;
65996;SDS011;52765;52.258;21.052;2023-04-03T15:03:39;2.25;;;0.98;;
65996;SDS011;52765;52.258;21.052;2023-04-03T15:06:05;3.35;;;1.02;;
65996;SDS011;52765;52.258;21.052;2023-04-03T15:08:30;1.80;;;0.88;;
65996;SDS011;52765;52.258;21.052;2023-04-03T15:10:59;2.38;;;1.20;;
65996;SDS011;52765;52.258;21.052;2023-04-03T15:13:26;2.25;;;0.90;;
65996;SDS011;52765;52.258;21.052;2023-04-03T15:15:54;2.33;;;1.05;;
65996;SDS011;52765;52.258;21.052;2023-04-03T15:18:22;3.35;;;0.98;;
65996;SDS011;52765;52.258;21.052;2023-04-03T15:20:51;2.17;;;1.00;;
65996;SDS011;52765;52.258;21.052;2023-04-03T15:23:17;3.05;;;1.48;;
65996;SDS011;52765;52.258;21.052;2023-04-03T15:25:44;2.17;;;0.98;;
65996;SDS011;52765;52.258;21.052;2023-04-03T15:28:18;3.03;;;1.35;;
65996;SDS011;52765;52.258;21.052;2023-04-03T15:31:00;2.28;;;1.00;;
65996;SDS011;52765;52.258;21.052;2023-04-03T15:33:26;1.98;;;1.13;;
65996;SDS011;52765;52.258;21.052;2023-04-03T15:35:52;3.17;;;0.93;;
65996;SDS011;52765;52.258;21.052;2023-04-03T15:38:20;3.08;;;1.25;;
65996;SDS011;52765;52.258;21.052;2023-04-03T15:40:46;1.50;;;1.10;;
65996;SDS011;52765;52.258;21.052;2023-04-03T15:43:12;3.58;;;1.27;;
65996;SDS011;52765;52.258;21.052;2023-04-03T15:45:39;5.75;;;1.30;;
65996;SDS011;52765;52.258;21.052;2023-04-03T15:48:05;2.45;;;1.05;;
65996;SDS011;52765;52.258;21.052;2023-04-03T15:50:31;2.30;;;1.20;;
65996;SDS011;52765;52.258;21.052;2023-04-03T15:52:58;1.45;;;1.15;;
65996;SDS011;52765;52.258;21.052;2023-04-03T15:55:25;3.50;;;1.00;;
65996;SDS011;52765;52.258;21.052;2023-04-03T15:57:54;2.53;;;1.10;;
65996;SDS011;52765;52.258;21.052;2023-04-03T16:00:20;2.10;;;1.10;;
65996;SDS011;52765;52.258;21.052;2023-04-03T16:02:47;1.33;;;0.90;;
65996;SDS011;52765;52.258;21.052;2023-04-03T16:05:15;4.25;;;1.27;;
65996;SDS011;52765;52.258;21.052;2023-04-03T16:07:42;6.20;;;1.00;;
65996;SDS011;52765;52.258;21.052;2023-04-03T16:10:08;4.63;;;1.70;;
65996;SDS011;52765;52.258;21.052;2023-04-03T16:12:35;2.50;;;1.17;;
65996;SDS011;52765;52.258;21.052;2023-04-03T16:15:01;3.28;;;1.52;;
65996;SDS011;52765;52.258;21.052;2023-04-03T16:17:27;1.83;;;1.08;;
65996;SDS011;52765;52.258;21.052;2023-04-03T16:19:55;2.78;;;1.23;;
65996;SDS011;52765;52.258;21.052;2023-04-03T16:22:21;4.25;;;1.20;;
65996;SDS011;52765;52.258;21.052;2023-04-03T16:24:49;1.77;;;1.00;;
65996;SDS011;52765;52.258;21.052;2023-04-03T16:27:15;2.17;;;1.15;;
65996;SDS011;52765;52.258;21.052;2023-04-03T16:29:41;3.05;;;1.40;;
65996;SDS011;52765;52.258;21.052;2023-04-03T16:32:07;2.75;;;1.50;;
65996;SDS011;52765;52.258;21.052;2023-04-03T16:34:33;3.05;;;1.50;;
65996;SDS011;52765;52.258;21.052;2023-04-03T16:36:58;3.53;;;1.40;;
65996;SDS011;52765;52.258;21.052;2023-04-03T16:39:24;1.40;;;1.20;;
65996;SDS011;52765;52.258;21.052;2023-04-03T16:41:49;7.80;;;1.58;;